createdAt,value
2023-09-17T00:01:26.896Z,57.00
2023-09-17T00:03:54.551Z,57.20
2023-09-17T00:06:22.002Z,57.10
2023-09-17T00:08:49.258Z,57.10
2023-09-17T00:11:16.653Z,57.10
2023-09-17T00:13:43.909Z,57.10
2023-09-17T00:16:12.196Z,57.30
2023-09-17T00:18:39.811Z,57.20
2023-09-17T00:21:07.637Z,57.10
2023-09-17T00:23:35.315Z,57.10
2023-09-17T00:26:02.620Z,57.20
2023-09-17T00:28:29.687Z,57.20
2023-09-17T00:30:56.889Z,57.20
2023-09-17T00:33:24.551Z,57.30
2023-09-17T00:35:53.811Z,57.30
2023-09-17T00:38:21.232Z,57.30
2023-09-17T00:40:50.581Z,57.40
2023-09-17T00:43:19.325Z,57.30
2023-09-17T00:45:46.917Z,57.30
2023-09-17T00:48:14.346Z,57.40
2023-09-17T00:50:41.999Z,57.30
2023-09-17T00:53:09.919Z,57.40
2023-09-17T00:55:38.608Z,57.50
2023-09-17T00:58:07.343Z,57.40
2023-09-17T01:00:39.407Z,57.40
2023-09-17T01:03:09.657Z,57.40
2023-09-17T01:05:43.445Z,57.40
2023-09-17T01:08:11.315Z,57.50
2023-09-17T01:10:42.555Z,57.40
2023-09-17T01:13:10.614Z,57.50
2023-09-17T01:15:38.867Z,57.50
2023-09-17T01:18:08.707Z,57.60
2023-09-17T01:21:16.288Z,57.60
2023-09-17T01:23:53.294Z,57.40
2023-09-17T01:26:27.871Z,57.60
2023-09-17T01:28:55.467Z,57.50
2023-09-17T01:31:24.793Z,57.50
2023-09-17T01:33:54.648Z,57.60
2023-09-17T01:36:35.191Z,57.50
2023-09-17T01:39:14.661Z,57.50
2023-09-17T01:41:42.717Z,57.60
2023-09-17T01:44:11.263Z,57.60
2023-09-17T01:46:40.438Z,57.50
2023-09-17T01:49:13.369Z,57.50
2023-09-17T01:51:41.088Z,57.50
2023-09-17T01:54:08.473Z,57.50
2023-09-17T01:56:43.151Z,57.40
2023-09-17T01:59:10.566Z,57.50
2023-09-17T02:01:38.210Z,57.50
2023-09-17T02:04:05.579Z,57.60
2023-09-17T02:06:32.770Z,57.70
2023-09-17T02:08:59.946Z,57.70
2023-09-17T02:11:27.290Z,57.80
2023-09-17T02:13:54.503Z,57.80
2023-09-17T02:16:22.330Z,57.90
2023-09-17T02:18:49.637Z,57.90
2023-09-17T02:21:17.045Z,58.00
2023-09-17T02:23:45.614Z,58.00
2023-09-17T02:26:13.367Z,58.00
2023-09-17T02:28:40.467Z,58.00
2023-09-17T02:31:08.112Z,57.90
2023-09-17T02:33:35.274Z,57.90
2023-09-17T02:36:04.410Z,58.00
2023-09-17T02:38:31.478Z,57.90
2023-09-17T02:40:58.597Z,58.00
2023-09-17T02:43:25.835Z,58.00
2023-09-17T02:45:55.259Z,58.00
2023-09-17T02:48:22.498Z,58.00
2023-09-17T02:50:49.848Z,58.00
2023-09-17T02:53:18.232Z,58.00
2023-09-17T02:55:46.770Z,58.00
2023-09-17T02:58:14.336Z,58.00
2023-09-17T03:00:44.414Z,58.00
2023-09-17T03:03:12.256Z,57.90
2023-09-17T03:05:39.435Z,58.00
2023-09-17T03:08:09.986Z,58.10
2023-09-17T03:10:43.587Z,58.10
2023-09-17T03:13:13.905Z,58.10
2023-09-17T03:15:41.545Z,58.20
2023-09-17T03:18:09.025Z,58.20
2023-09-17T03:20:36.856Z,58.30
2023-09-17T03:23:05.643Z,58.30
2023-09-17T03:25:35.538Z,58.30
2023-09-17T03:28:02.904Z,58.50
2023-09-17T03:30:30.316Z,58.30
2023-09-17T03:33:04.790Z,58.40
2023-09-17T03:35:40.818Z,59.70
2023-09-17T03:38:08.608Z,58.40
2023-09-17T03:40:35.906Z,58.50
2023-09-17T03:43:04.643Z,58.40
2023-09-17T03:45:32.331Z,58.50
2023-09-17T03:47:59.904Z,58.40
2023-09-17T03:50:29.214Z,58.50
2023-09-17T03:53:00.144Z,58.50
2023-09-17T03:55:27.521Z,58.60
2023-09-17T03:57:57.536Z,58.50
2023-09-17T04:00:26.514Z,58.50
2023-09-17T04:02:54.318Z,58.50
2023-09-17T04:05:22.790Z,58.50
2023-09-17T04:07:49.999Z,58.40
2023-09-17T04:10:18.675Z,58.40
2023-09-17T04:12:46.724Z,58.30
2023-09-17T04:15:20.383Z,58.30
2023-09-17T04:17:50.954Z,58.30
2023-09-17T04:20:22.446Z,58.40
2023-09-17T04:22:51.795Z,58.20
2023-09-17T04:25:21.646Z,58.40
2023-09-17T04:27:51.088Z,58.40
2023-09-17T04:30:21.098Z,58.40
2023-09-17T04:32:51.240Z,58.30
2023-09-17T04:35:19.841Z,58.30
2023-09-17T04:37:50.267Z,58.40
2023-09-17T04:40:25.968Z,58.50
2023-09-17T04:42:53.695Z,58.40
2023-09-17T04:45:39.878Z,58.50
2023-09-17T04:48:12.958Z,58.50
2023-09-17T04:50:46.412Z,58.70
2023-09-17T04:53:16.113Z,60.00
2023-09-17T04:55:45.722Z,58.70
2023-09-17T04:58:15.360Z,58.70
2023-09-17T05:00:45.372Z,58.80
2023-09-17T05:03:13.208Z,58.90
2023-09-17T05:05:40.702Z,59.00
2023-09-17T05:08:09.029Z,58.90
2023-09-17T05:10:36.558Z,59.10
2023-09-17T05:13:04.155Z,59.20
2023-09-17T05:15:31.482Z,59.20
2023-09-17T05:18:00.008Z,59.50
2023-09-17T05:20:28.250Z,59.30
2023-09-17T05:22:57.392Z,59.30
2023-09-17T05:25:24.762Z,59.50
2023-09-17T05:27:52.051Z,59.60
2023-09-17T05:30:19.137Z,59.70
2023-09-17T05:32:46.536Z,59.60
2023-09-17T05:35:14.443Z,59.70
2023-09-17T05:37:41.685Z,59.70
2023-09-17T05:40:10.341Z,59.70
2023-09-17T05:42:38.873Z,59.80
2023-09-17T05:45:06.700Z,59.80
2023-09-17T05:47:34.304Z,59.90
2023-09-17T05:50:01.741Z,59.70
2023-09-17T05:52:34.393Z,59.70
2023-09-17T05:55:05.275Z,59.80
2023-09-17T05:57:34.649Z,59.80
2023-09-17T06:00:05.058Z,59.80
2023-09-17T06:02:42.163Z,59.70
2023-09-17T06:05:11.723Z,59.70
2023-09-17T06:07:39.028Z,59.60
2023-09-17T06:10:07.095Z,59.70
2023-09-17T06:12:34.171Z,59.70
2023-09-17T06:15:02.685Z,59.60
2023-09-17T06:17:29.884Z,59.60
2023-09-17T06:19:57.033Z,59.60
2023-09-17T06:22:24.909Z,59.80
2023-09-17T06:24:52.601Z,59.50
2023-09-17T06:27:19.818Z,59.60
2023-09-17T06:29:46.879Z,59.60
2023-09-17T06:32:15.225Z,59.60
2023-09-17T06:34:42.820Z,59.70
2023-09-17T06:37:10.402Z,59.50
2023-09-17T06:39:37.820Z,59.70
2023-09-17T06:42:05.815Z,59.60
2023-09-17T06:44:34.006Z,59.70
2023-09-17T06:47:01.135Z,59.70
2023-09-17T06:49:28.887Z,59.70
2023-09-17T06:51:56.877Z,59.70
2023-09-17T06:54:23.932Z,59.70
2023-09-17T06:56:53.018Z,59.70
2023-09-17T06:59:20.038Z,59.60
2023-09-17T07:01:47.646Z,59.70
2023-09-17T07:04:15.017Z,59.70
2023-09-17T07:06:42.323Z,59.60
2023-09-17T07:09:09.420Z,59.60
2023-09-17T07:11:36.508Z,59.50
2023-09-17T07:14:10.288Z,59.60
2023-09-17T07:16:38.668Z,59.60
2023-09-17T07:19:06.464Z,59.50
2023-09-17T07:21:33.732Z,59.50
2023-09-17T07:24:00.763Z,59.60
2023-09-17T07:26:29.237Z,59.60
2023-09-17T07:28:56.452Z,59.50
2023-09-17T07:31:23.931Z,59.50
2023-09-17T07:33:51.343Z,59.50
2023-09-17T07:36:18.795Z,59.50
2023-09-17T07:38:45.851Z,59.60
2023-09-17T07:41:13.067Z,59.60
2023-09-17T07:43:40.289Z,60.50
2023-09-17T07:46:07.602Z,59.60
2023-09-17T07:48:35.744Z,59.60
2023-09-17T07:51:02.849Z,59.60
2023-09-17T07:53:29.865Z,59.50
2023-09-17T07:55:57.648Z,59.60
2023-09-17T07:58:24.923Z,59.70
2023-09-17T08:00:52.015Z,59.70
2023-09-17T08:03:20.055Z,59.80
2023-09-17T08:05:48.633Z,59.70
2023-09-17T08:08:15.845Z,59.70
2023-09-17T08:10:43.539Z,59.70
2023-09-17T08:13:10.696Z,59.70
2023-09-17T08:15:38.991Z,59.70
2023-09-17T08:18:06.548Z,59.80
2023-09-17T08:20:34.027Z,59.90
2023-09-17T08:23:01.217Z,59.80
2023-09-17T08:25:28.438Z,60.00
2023-09-17T08:27:55.563Z,60.00
2023-09-17T08:30:22.610Z,60.10
2023-09-17T08:32:49.915Z,60.20
2023-09-17T08:35:17.232Z,60.30
2023-09-17T08:37:45.310Z,60.40
2023-09-17T08:40:15.854Z,60.50
2023-09-17T08:42:43.930Z,60.50
2023-09-17T08:45:12.724Z,60.50
2023-09-17T08:47:40.707Z,60.50
2023-09-17T08:50:10.491Z,60.60
2023-09-17T08:52:58.260Z,60.60
2023-09-17T08:55:25.693Z,60.60
2023-09-17T08:58:10.335Z,61.50
2023-09-17T09:00:41.186Z,60.70
2023-09-17T09:03:09.574Z,60.70
2023-09-17T09:05:37.584Z,60.70
2023-09-17T09:08:06.249Z,60.70
2023-09-17T09:10:33.552Z,60.90
2023-09-17T09:13:01.305Z,60.90
2023-09-17T09:15:28.674Z,60.90
2023-09-17T09:17:56.597Z,60.90
2023-09-17T09:20:24.180Z,61.00
2023-09-17T09:22:51.519Z,61.00
2023-09-17T09:25:19.889Z,61.00
2023-09-17T09:27:47.247Z,61.00
2023-09-17T09:30:18.043Z,61.00
2023-09-17T09:32:46.759Z,61.00
2023-09-17T09:35:14.267Z,61.10
2023-09-17T09:37:41.429Z,61.00
2023-09-17T09:40:09.668Z,61.10
2023-09-17T09:42:37.248Z,61.10
2023-09-17T09:45:04.959Z,61.10
2023-09-17T09:47:33.166Z,61.10
2023-09-17T09:50:02.165Z,61.10
2023-09-17T09:52:30.260Z,61.10
2023-09-17T09:54:57.536Z,61.10
2023-09-17T09:57:26.771Z,61.10
2023-09-17T09:59:54.535Z,61.20
2023-09-17T10:02:23.326Z,61.10
2023-09-17T10:04:50.782Z,62.10
2023-09-17T10:07:18.930Z,61.10
2023-09-17T10:09:47.215Z,61.20
2023-09-17T10:12:14.623Z,62.10
2023-09-17T10:14:42.516Z,61.20
2023-09-17T10:17:12.321Z,61.20
2023-09-17T10:19:41.636Z,61.30
2023-09-17T10:22:11.374Z,61.10
2023-09-17T10:24:39.860Z,61.30
2023-09-17T10:27:08.057Z,61.20
2023-09-17T10:29:39.783Z,61.10
2023-09-17T10:32:10.523Z,61.30
2023-09-17T10:34:38.290Z,61.30
2023-09-17T10:37:06.276Z,61.30
2023-09-17T10:39:34.575Z,61.20
2023-09-17T10:42:06.159Z,61.30
2023-09-17T10:44:38.058Z,61.20
2023-09-17T10:47:12.414Z,61.30
2023-09-17T10:49:44.026Z,61.30
2023-09-17T10:52:13.418Z,61.20
2023-09-17T10:54:40.723Z,61.10
2023-09-17T10:57:24.077Z,61.10
2023-09-17T10:59:53.614Z,61.00
2023-09-17T11:02:23.346Z,61.10
2023-09-17T11:04:52.186Z,61.10
2023-09-17T11:07:19.984Z,61.10
2023-09-17T11:09:47.863Z,61.10
2023-09-17T11:12:15.092Z,61.00
2023-09-17T11:14:47.272Z,61.00
2023-09-17T11:17:19.431Z,60.90
2023-09-17T11:19:46.679Z,61.00
2023-09-17T11:22:14.363Z,61.00
2023-09-17T11:24:45.478Z,60.90
2023-09-17T11:27:13.537Z,60.90
2023-09-17T11:29:42.669Z,60.90
2023-09-17T11:32:10.304Z,60.90
2023-09-17T11:34:42.383Z,60.90
2023-09-17T11:37:09.577Z,60.80
2023-09-17T11:39:38.009Z,60.80
2023-09-17T11:42:14.227Z,60.90
2023-09-17T11:44:43.779Z,60.80
2023-09-17T11:47:13.892Z,60.70
2023-09-17T11:49:41.916Z,60.70
2023-09-17T11:52:13.222Z,60.70
2023-09-17T11:54:52.699Z,60.70
2023-09-17T11:57:27.862Z,60.60
2023-09-17T11:59:56.827Z,60.60
2023-09-17T12:02:24.830Z,60.60
2023-09-17T12:04:53.466Z,60.50
2023-09-17T12:07:21.682Z,60.40
2023-09-17T12:10:08.048Z,60.40
2023-09-17T12:12:37.916Z,60.40
2023-09-17T12:15:06.432Z,60.30
2023-09-17T12:17:43.918Z,60.40
2023-09-17T12:20:58.115Z,60.30
2023-09-17T12:24:07.694Z,60.30
2023-09-17T12:27:26.324Z,60.10
2023-09-17T12:29:54.868Z,60.00
2023-09-17T12:32:29.204Z,60.00
2023-09-17T12:34:58.012Z,60.90
2023-09-17T12:37:26.878Z,60.00
2023-09-17T12:39:54.394Z,60.00
2023-09-17T12:42:22.481Z,59.90
2023-09-17T12:44:51.069Z,59.90
